Decoded Metar for LZPP (PIESTANY in SLOVAKIA) (IATA:PZY) | Meteo·Mobile Aviation Weather
aviador You're here:

LZPP Decoded Metar

PIESTANY in SLOVAKIA
Report Time2019-03-23 21:00:00
UTC Time2019-03-23 21:12:10
Flight Rules vfr VFR
Wind320° at 01 kt
W.Decomp.*RWY 01: 0.6 kt HW 0.8 kt LCW
W.Rank320° ranks 10
Current wind is below 320° avg. (7.6)
Visibility9999 m
Phenomena:N/A
Clouds:N/A
Expected CloudBase > 800 ft AGL from Temp-Dew spread
CeilingNone
Temp05°C (ISA -9)
Dew Point03°C (87% RH)
AAT3.1°C
QNH1025 hPa
Density Alt-853 ft
Elevation528 ft
Report Wrong Elevation
Raw Report
LZPP 232100Z AUTO 32001KT 9999 NCD 05/03 Q1025=

Extra information for LZPP:More info

Metar Taf Metar & Taf Last 4 Metars F.Rules Stats Wind Profile Meteogram Temp Stats Airport Information Weather charts Add Link Nearby VenuesMetar ALERT Operation Metar Decoded Social comments